Time;durP1;ratioP1;P1;durP2;ratioP2;P2;SDS_P1;SDS_P2;PMS_P1;PMS_P2;Temp;Humidity;BMP_temperature;BMP_pressure;BME280_temperature;BME280_humidity;BME280_pressure;Samples;Min_cycle;Max_cycle;Signal;HPM_P1;HPM_P2
2023/06/15 00:00:56;;;;;;;10.32;8.80;;;;;;;18.44;79.84;94515.38;4198983;28;20045;-58
2023/06/15 00:02:58;;;;;;;9.55;8.60;;;;;;;18.48;80.21;94505.97;4206400;28;20135;-58
2023/06/15 00:05:00;;;;;;;11.48;8.93;;;;;;;18.49;80.06;94506.78;4208862;28;20060;-58
2023/06/15 00:07:02;;;;;;;11.05;9.90;;;;;;;18.49;79.89;94504.13;4214251;28;20098;-57
2023/06/15 00:09:04;;;;;;;11.63;10.27;;;;;;;18.51;80.38;94508.19;4209718;28;20054;-57
2023/06/15 00:11:05;;;;;;;11.15;9.98;;;;;;;18.55;80.30;94503.28;4209149;28;20097;-58
2023/06/15 00:13:07;;;;;;;11.65;10.45;;;;;;;18.62;80.35;94506.69;4209941;28;20056;-59
2023/06/15 00:15:10;;;;;;;12.90;10.93;;;;;;;18.65;80.10;94498.34;4209100;28;20386;-59
2023/06/15 00:17:11;;;;;;;11.32;9.90;;;;;;;18.68;79.75;94492.59;4214537;28;20055;-58
2023/06/15 00:19:13;;;;;;;11.00;9.77;;;;;;;18.72;79.71;94501.75;4208606;28;20058;-59
2023/06/15 00:21:15;;;;;;;14.82;10.43;;;;;;;18.75;79.56;94495.19;4211098;28;20040;-58
2023/06/15 00:23:17;;;;;;;12.80;10.77;;;;;;;18.78;79.28;94495.63;4205638;28;20063;-58
2023/06/15 00:25:19;;;;;;;12.77;11.48;;;;;;;18.79;78.89;94496.41;4213506;28;20528;-59
2023/06/15 00:27:20;;;;;;;13.15;11.27;;;;;;;18.73;78.91;94495.41;4209174;28;20047;-58
2023/06/15 00:29:22;;;;;;;12.55;10.88;;;;;;;18.70;79.08;94495.84;4211842;28;20052;-57
2023/06/15 00:31:24;;;;;;;14.27;11.43;;;;;;;18.74;79.00;94489.09;4213992;28;20048;-57
2023/06/15 00:33:26;;;;;;;11.65;10.35;;;;;;;18.77;78.71;94487.84;4203549;28;20044;-60
2023/06/15 00:35:27;;;;;;;12.45;10.88;;;;;;;18.73;78.29;94492.75;4208194;28;20525;-58
2023/06/15 00:37:29;;;;;;;12.23;10.77;;;;;;;18.74;78.66;94488.28;4212525;28;20044;-60
2023/06/15 00:39:31;;;;;;;18.98;14.45;;;;;;;18.77;78.71;94482.53;4213077;28;20052;-59
2023/06/15 00:41:40;;;;;;;72.47;53.17;;;;;;;18.82;78.71;94491.50;4206252;28;20081;-58
2023/06/15 00:43:42;;;;;;;39.63;32.05;;;;;;;18.83;78.30;94487.81;4211105;28;20044;-60
2023/06/15 00:45:44;;;;;;;17.55;15.23;;;;;;;18.83;77.90;94489.66;4205675;28;20125;-59
2023/06/15 00:47:46;;;;;;;12.50;11.20;;;;;;;18.75;78.09;94485.38;4200121;28;20036;-57
2023/06/15 00:49:49;;;;;;;12.53;11.23;;;;;;;18.72;78.11;94490.31;4210334;28;20090;-59
2023/06/15 00:51:51;;;;;;;12.32;10.77;;;;;;;18.68;78.31;94489.94;4214543;28;20071;-58
2023/06/15 00:53:53;;;;;;;12.38;10.30;;;;;;;18.69;78.32;94486.28;4211694;28;20084;-57
2023/06/15 00:55:55;;;;;;;11.32;10.20;;;;;;;18.68;78.01;94483.81;4212155;28;20067;-59
2023/06/15 00:57:57;;;;;;;11.65;10.45;;;;;;;18.69;78.46;94480.97;4212523;28;20131;-59
2023/06/15 00:59:59;;;;;;;11.95;10.52;;;;;;;18.70;78.31;94485.22;4211462;28;20044;-58
2023/06/15 01:02:03;;;;;;;12.20;10.05;;;;;;;18.74;78.41;94477.66;4212566;28;20135;-60
2023/06/15 01:04:06;;;;;;;;;;;;;;;18.74;77.73;94489.09;4200588;28;20060;-59
2023/06/15 01:06:13;;;;;;;12.18;10.00;;;;;;;18.76;77.29;94487.03;4213936;28;19952;-55
2023/06/15 01:08:15;;;;;;;11.93;9.48;;;;;;;18.76;77.10;94487.03;4213959;28;20134;-59
2023/06/15 01:10:20;;;;;;;11.65;10.32;;;;;;;18.79;77.10;94480.50;4209319;28;20123;-58
2023/06/15 01:12:24;;;;;;;10.80;9.48;;;;;;;18.76;76.88;94484.38;4200224;28;20043;-59
2023/06/15 01:14:28;;;;;;;11.65;10.55;;;;;;;18.76;76.84;94486.22;4211470;28;20519;-58
2023/06/15 01:16:37;;;;;;;10.93;9.82;;;;;;;18.77;76.99;94483.34;4207249;28;20048;-60
2023/06/15 01:18:46;;;;;;;10.43;9.32;;;;;;;18.79;76.55;94472.53;4211712;28;20532;-58
2023/06/15 01:20:49;;;;;;;10.68;9.57;;;;;;;18.77;76.62;94475.38;4211995;28;20054;-56
2023/06/15 01:23:01;;;;;;;11.00;9.82;;;;;;;18.74;77.33;94469.69;4212689;28;20052;-59
2023/06/15 01:25:42;;;;;;;11.18;10.15;;;;;;;18.76;77.60;94465.00;4211502;28;20044;-58
2023/06/15 01:27:44;;;;;;;12.20;9.13;;;;;;;18.77;77.71;94463.94;4208918;28;20044;-57
2023/06/15 01:29:49;;;;;;;11.27;9.52;;;;;;;18.79;77.29;94468.03;4204531;28;20048;-58
2023/06/15 01:31:52;;;;;;;11.15;10.05;;;;;;;18.76;76.87;94463.16;4212150;28;20311;-59
2023/06/15 01:33:55;;;;;;;10.30;9.30;;;;;;;18.74;77.05;94465.19;4204860;28;20066;-58
2023/06/15 01:35:57;;;;;;;10.35;9.32;;;;;;;18.76;76.58;94454.38;4211813;28;20505;-59
2023/06/15 01:37:59;;;;;;;10.85;9.75;;;;;;;18.73;76.11;94455.59;4213378;28;20094;-57
2023/06/15 01:40:01;;;;;;;11.45;9.65;;;;;;;18.67;76.66;94456.47;4212673;28;20043;-59
2023/06/15 01:42:03;;;;;;;10.57;9.50;;;;;;;18.62;76.85;94451.00;4213323;28;20055;-58
2023/06/15 01:44:05;;;;;;;10.77;9.65;;;;;;;18.60;77.09;94459.16;4212303;28;20052;-59
2023/06/15 01:46:08;;;;;;;10.20;9.10;;;;;;;18.62;77.21;94443.84;4212296;28;20052;-59
2023/06/15 01:48:10;;;;;;;12.07;9.43;;;;;;;18.64;76.85;94454.25;4213330;28;20478;-58
2023/06/15 01:50:12;;;;;;;12.18;10.30;;;;;;;18.65;76.56;94453.22;4211651;28;20058;-59
2023/06/15 01:52:15;;;;;;;12.40;10.07;;;;;;;18.64;76.28;94454.25;4211610;28;20069;-60
2023/06/15 01:54:16;;;;;;;13.85;10.02;;;;;;;18.62;76.43;94454.44;4205817;28;20052;-58
2023/06/15 01:56:18;;;;;;;10.43;9.43;;;;;;;18.63;76.83;94449.97;4207092;28;20060;-59
2023/06/15 01:58:20;;;;;;;11.05;9.95;;;;;;;18.63;76.49;94458.75;4201152;28;20051;-60
2023/06/15 02:00:23;;;;;;;9.82;8.93;;;;;;;18.66;76.61;94451.38;4212860;28;20413;-58
2023/06/15 02:02:25;;;;;;;10.50;9.40;;;;;;;18.64;76.37;94448.94;4200911;28;20047;-58
2023/06/15 02:04:27;;;;;;;12.00;9.07;;;;;;;18.66;76.78;94448.72;4200345;28;20280;-59
2023/06/15 02:06:28;;;;;;;11.40;9.93;;;;;;;18.66;76.70;94446.88;4210978;28;20078;-57
2023/06/15 02:08:30;;;;;;;10.95;9.60;;;;;;;18.66;76.76;94444.22;4203977;28;20131;-57
2023/06/15 02:10:32;;;;;;;11.30;10.20;;;;;;;18.63;76.98;94444.66;4208209;28;20501;-58
2023/06/15 02:12:34;;;;;;;11.07;9.98;;;;;;;18.58;77.48;94440.00;4208187;28;20048;-58
2023/06/15 02:14:36;;;;;;;11.32;10.10;;;;;;;18.59;77.36;94449.59;4203507;28;20434;-57
2023/06/15 02:16:38;;;;;;;10.75;9.75;;;;;;;18.60;77.37;94450.38;4202655;28;20067;-58
2023/06/15 02:18:44;;;;;;;11.88;10.73;;;;;;;18.62;77.25;94445.69;4201467;28;20409;-58
2023/06/15 02:20:46;;;;;;;12.57;10.07;;;;;;;18.62;77.28;94443.84;4202808;28;20044;-59
2023/06/15 02:22:48;;;;;;;10.75;9.65;;;;;;;18.61;76.98;94444.06;4212387;28;20508;-59
2023/06/15 02:24:50;;;;;;;11.90;9.48;;;;;;;18.65;77.14;94439.97;4204046;28;20105;-58
2023/06/15 02:26:51;;;;;;;11.63;10.52;;;;;;;18.65;76.88;94447.94;4212526;28;20060;-57
2023/06/15 02:28:53;;;;;;;12.40;10.45;;;;;;;18.65;77.18;94442.63;4210567;28;20048;-59
2023/06/15 02:30:55;;;;;;;11.10;10.00;;;;;;;18.66;76.90;94446.06;4211466;28;20094;-58
2023/06/15 02:33:00;;;;;;;12.45;10.93;;;;;;;18.68;77.00;94433.41;4212668;28;20672;-58
2023/06/15 02:35:07;;;;;;;12.15;10.85;;;;;;;18.69;76.77;94440.31;4211593;28;20497;-58
2023/06/15 02:37:08;;;;;;;13.38;10.98;;;;;;;18.69;76.97;94433.19;4211667;28;20048;-59
2023/06/15 02:39:10;;;;;;;11.13;9.93;;;;;;;18.69;76.91;94435.03;4212046;28;20055;-58
2023/06/15 02:41:12;;;;;;;12.07;10.63;;;;;;;18.71;76.91;94430.31;4212029;28;20135;-57
2023/06/15 02:43:14;;;;;;;13.60;10.70;;;;;;;18.71;76.64;94438.28;4211935;28;20083;-59
2023/06/15 02:45:16;;;;;;;12.15;10.80;;;;;;;18.71;76.68;94439.06;4212153;28;20218;-58
2023/06/15 02:47:18;;;;;;;12.60;11.13;;;;;;;18.70;76.81;94434.00;4211724;28;20091;-58
2023/06/15 02:49:20;;;;;;;11.48;10.05;;;;;;;18.70;76.76;94439.31;4210093;28;20272;-58
2023/06/15 02:51:22;;;;;;;12.63;11.25;;;;;;;18.65;77.13;94434.66;4211721;28;20048;-57
2023/06/15 02:53:23;;;;;;;11.98;10.77;;;;;;;18.65;77.33;94439.97;4211721;28;20047;-54
2023/06/15 02:55:25;;;;;;;12.40;11.18;;;;;;;18.65;77.26;94442.63;4196668;28;20044;-56
2023/06/15 02:57:27;;;;;;;12.10;10.80;;;;;;;18.66;77.56;94438.13;4201368;28;20055;-57
2023/06/15 02:59:30;;;;;;;14.82;11.88;;;;;;;18.61;77.76;94446.72;4210511;28;20087;-55
2023/06/15 03:01:38;;;;;;;18.70;15.15;;;;;;;18.62;77.81;94443.03;4210853;28;20056;-56
2023/06/15 03:03:40;;;;;;;17.27;12.43;;;;;;;18.66;77.91;94446.06;4199922;28;20569;-57
2023/06/15 03:05:42;;;;;;;12.65;11.43;;;;;;;18.67;77.94;94439.72;4211131;28;20406;-57
2023/06/15 03:07:44;;;;;;;12.30;11.07;;;;;;;18.67;78.33;94445.03;4212319;28;20056;-53
2023/06/15 03:09:47;;;;;;;12.25;10.90;;;;;;;18.70;77.99;94434.81;4209672;28;20044;-55
2023/06/15 03:11:50;;;;;;;12.52;11.20;;;;;;;18.72;77.96;94437.25;4211106;28;20052;-57
2023/06/15 03:13:53;;;;;;;14.57;11.43;;;;;;;18.73;78.00;94446.84;4211470;28;20059;-55
2023/06/15 03:15:55;;;;;;;13.27;11.82;;;;;;;18.73;78.02;94438.88;4211899;28;20080;-54
2023/06/15 03:17:57;;;;;;;13.45;11.18;;;;;;;18.76;78.29;94439.25;4211500;28;20573;-57
2023/06/15 03:20:00;;;;;;;13.70;10.77;;;;;;;18.78;78.25;94431.94;4210893;28;20529;-57
2023/06/15 03:22:05;;;;;;;14.40;11.23;;;;;;;18.83;78.13;94433.94;4211172;28;20044;-55
2023/06/15 03:24:08;;;;;;;13.18;11.60;;;;;;;18.83;78.16;94437.38;4207013;28;20051;-55
2023/06/15 03:26:10;;;;;;;12.18;10.98;;;;;;;18.80;78.08;94437.84;4211136;28;20078;-57
2023/06/15 03:28:12;;;;;;;13.27;11.75;;;;;;;18.81;78.33;94441.28;4210861;28;20636;-59
2023/06/15 03:30:14;;;;;;;12.70;11.45;;;;;;;18.82;78.25;94442.91;4199301;28;20105;-57
2023/06/15 03:32:16;;;;;;;14.05;12.13;;;;;;;18.85;78.35;94431.88;4210391;28;20131;-58
2023/06/15 03:34:18;;;;;;;14.00;12.50;;;;;;;18.90;78.22;94437.34;4209500;28;20585;-56
2023/06/15 03:36:19;;;;;;;13.70;12.30;;;;;;;18.91;77.72;94425.69;4210772;28;20047;-58
2023/06/15 03:38:21;;;;;;;14.93;11.57;;;;;;;18.89;77.58;94440.22;4211281;28;20044;-58
2023/06/15 03:40:23;;;;;;;14.50;12.23;;;;;;;18.89;77.34;94432.25;4206963;28;20044;-54
2023/06/15 03:42:25;;;;;;;13.68;12.18;;;;;;;18.87;77.54;94427.16;4201379;28;20044;-55
2023/06/15 03:44:26;;;;;;;13.98;12.60;;;;;;;18.81;76.97;94426.19;4209974;28;20477;-56
2023/06/15 03:46:28;;;;;;;18.65;13.20;;;;;;;18.79;77.06;94428.22;4210756;28;20048;-55
2023/06/15 03:48:30;;;;;;;13.82;12.27;;;;;;;18.76;77.16;94438.47;4211090;28;20051;-56
2023/06/15 03:50:32;;;;;;;14.90;12.18;;;;;;;18.78;77.52;94436.44;4210463;28;20059;-52
2023/06/15 03:52:35;;;;;;;12.23;10.93;;;;;;;18.83;77.46;94440.03;4211080;28;20048;-54
2023/06/15 03:54:37;;;;;;;18.17;11.45;;;;;;;18.90;77.55;94439.19;4210248;28;20080;-57
2023/06/15 03:56:40;;;;;;;11.93;10.73;;;;;;;18.98;77.39;94441.56;4211189;28;20054;-56
2023/06/15 03:58:41;;;;;;;13.93;11.85;;;;;;;19.01;77.17;94444.63;4210952;28;20048;-57
2023/06/15 04:00:46;;;;;;;13.80;12.35;;;;;;;19.01;77.09;94441.13;4206128;28;20546;-59
2023/06/15 04:02:47;;;;;;;13.35;12.00;;;;;;;18.97;77.67;94445.25;4211646;28;20425;-58
2023/06/15 04:04:52;;;;;;;13.95;12.13;;;;;;;19.01;77.64;94438.47;4209459;28;20056;-60
2023/06/15 04:06:56;;;;;;;16.25;13.48;;;;;;;19.02;77.33;94437.44;4210115;28;20370;-55
2023/06/15 04:08:57;;;;;;;14.18;12.18;;;;;;;19.03;77.61;94441.72;4209890;28;20051;-54
2023/06/15 04:11:00;;;;;;;14.75;12.45;;;;;;;19.08;77.65;94452.50;4209514;28;20078;-56
2023/06/15 04:13:01;;;;;;;13.93;12.15;;;;;;;19.12;77.37;94447.56;4209791;28;20047;-56
2023/06/15 04:15:04;;;;;;;13.48;11.63;;;;;;;19.20;77.40;94455.25;4210694;28;20086;-57
2023/06/15 04:17:05;;;;;;;13.00;11.65;;;;;;;19.28;77.29;94451.53;4211485;28;20048;-59
2023/06/15 04:19:07;;;;;;;13.70;12.40;;;;;;;19.35;77.00;94447.75;4201817;28;20059;-57
2023/06/15 04:21:09;;;;;;;15.25;12.70;;;;;;;19.40;76.66;94444.44;4202329;28;20044;-59
2023/06/15 04:23:11;;;;;;;15.38;12.85;;;;;;;19.46;76.81;94438.25;4209563;28;20212;-56
2023/06/15 04:25:13;;;;;;;13.63;12.23;;;;;;;19.52;76.61;94442.69;4206009;28;20054;-57
2023/06/15 04:27:18;;;;;;;13.68;12.32;;;;;;;19.62;76.44;94443.00;4202613;28;20080;-59
2023/06/15 04:29:22;;;;;;;14.68;12.50;;;;;;;19.65;75.56;94441.72;4210633;28;20067;-58
2023/06/15 04:31:24;;;;;;;;;;;;;;;19.69;75.36;94450.09;4211550;28;20040;-58
2023/06/15 04:33:26;;;;;;;16.15;12.55;;;;;;;19.75;75.62;94450.03;4211287;28;19970;-58
2023/06/15 04:35:31;;;;;;;11.75;10.55;;;;;;;19.60;74.25;94446.91;4209575;28;20444;-58
2023/06/15 04:37:33;;;;;;;13.77;11.45;;;;;;;19.35;74.58;94444.28;4205971;28;20059;-59
2023/06/15 04:39:35;;;;;;;16.10;11.68;;;;;;;19.23;76.04;94449.53;4204052;28;20444;-61
2023/06/15 04:41:38;;;;;;;12.25;10.38;;;;;;;19.19;76.67;94453.66;4210012;28;20048;-60
2023/06/15 04:43:40;;;;;;;;;;;;;;;19.21;76.83;94452.38;4198746;28;20079;-60
2023/06/15 04:45:42;;;;;;;10.65;9.55;;;;;;;19.27;76.55;94452.53;4213015;28;19927;-60
2023/06/15 04:47:44;;;;;;;10.80;9.70;;;;;;;19.21;75.70;94451.59;4213912;28;20051;-61
2023/06/15 04:49:46;;;;;;;14.50;10.23;;;;;;;19.20;76.32;94445.44;4212389;28;20394;-60
2023/06/15 04:51:49;;;;;;;12.35;9.75;;;;;;;19.26;76.33;94448.28;4213779;28;20048;-61
2023/06/15 04:53:51;;;;;;;14.40;10.65;;;;;;;19.22;76.34;94448.69;4212949;28;20505;-61
2023/06/15 04:55:53;;;;;;;10.57;9.27;;;;;;;19.21;76.08;94451.59;4213521;28;20117;-60
2023/06/15 04:57:55;;;;;;;11.18;9.95;;;;;;;19.19;76.34;94459.75;4213754;28;20121;-60
2023/06/15 04:59:56;;;;;;;11.60;9.43;;;;;;;19.21;76.41;94455.06;4211909;28;20131;-61
2023/06/15 05:01:58;;;;;;;10.55;9.52;;;;;;;19.17;76.33;94458.38;4214277;28;20044;-61
2023/06/15 05:04:00;;;;;;;12.38;9.27;;;;;;;19.19;76.65;94454.44;4212808;28;20051;-58
2023/06/15 05:06:02;;;;;;;10.73;9.52;;;;;;;19.27;76.62;94457.84;4202733;28;20490;-59
2023/06/15 05:08:04;;;;;;;13.00;9.32;;;;;;;19.32;76.60;94458.84;4211862;28;20052;-58
2023/06/15 05:10:07;;;;;;;10.27;9.13;;;;;;;19.37;76.36;94460.81;4212863;28;20040;-58
2023/06/15 05:12:09;;;;;;;10.93;9.93;;;;;;;19.40;76.20;94471.00;4205976;28;20513;-60
2023/06/15 05:14:10;;;;;;;11.43;10.27;;;;;;;19.46;76.31;94470.13;4208485;28;20109;-59
2023/06/15 05:16:12;;;;;;;13.77;9.85;;;;;;;19.52;75.97;94469.25;4211922;28;20167;-60
2023/06/15 05:18:14;;;;;;;13.85;11.80;;;;;;;19.46;75.12;94464.81;4213276;28;20100;-59
2023/06/15 05:20:16;;;;;;;12.82;11.38;;;;;;;19.43;75.08;94471.38;4211965;28;20044;-60
2023/06/15 05:22:17;;;;;;;12.55;11.23;;;;;;;19.40;75.12;94471.84;4213605;28;20139;-60
2023/06/15 05:24:19;;;;;;;12.65;11.32;;;;;;;19.41;75.35;94473.44;4211132;28;20052;-61
2023/06/15 05:26:21;;;;;;;12.38;11.07;;;;;;;19.41;75.47;94477.94;4212936;28;20048;-59
2023/06/15 05:28:30;;;;;;;12.15;10.95;;;;;;;19.46;75.99;94470.13;4213025;28;20048;-61
2023/06/15 05:30:32;;;;;;;15.77;11.63;;;;;;;19.47;75.85;94477.06;4198658;28;20052;-59
2023/06/15 05:32:37;;;;;;;15.18;12.25;;;;;;;19.48;76.07;94476.03;4213347;28;20394;-60
2023/06/15 05:34:39;;;;;;;14.20;12.00;;;;;;;19.28;75.35;94480.72;4212147;28;20047;-60
2023/06/15 05:36:41;;;;;;;14.05;12.32;;;;;;;19.15;75.93;94473.69;4213850;28;20102;-61
2023/06/15 05:38:58;;;;;;;15.98;11.43;;;;;;;19.21;76.56;94476.28;4212558;28;20048;-60
2023/06/15 05:40:59;;;;;;;13.07;11.77;;;;;;;19.37;76.62;94474.09;4212530;28;20040;-60
2023/06/15 05:43:01;;;;;;;15.80;12.65;;;;;;;19.49;76.15;94476.84;4212678;28;20048;-59
2023/06/15 05:45:03;;;;;;;14.80;11.82;;;;;;;19.49;75.29;94475.03;4212064;28;20131;-58
2023/06/15 05:47:05;;;;;;;13.57;12.18;;;;;;;19.49;75.20;94479.50;4213414;28;20127;-57
2023/06/15 05:49:07;;;;;;;14.52;11.82;;;;;;;19.40;75.21;94482.47;4210857;28;20093;-56
2023/06/15 05:51:09;;;;;;;15.00;13.40;;;;;;;19.27;75.98;94482.56;4212235;28;20588;-59
2023/06/15 05:53:10;;;;;;;14.30;12.90;;;;;;;19.34;76.57;94478.03;4207623;28;20131;-57
2023/06/15 05:55:12;;;;;;;14.10;12.38;;;;;;;19.39;76.08;94486.13;4210897;28;20055;-58
2023/06/15 05:57:14;;;;;;;17.70;13.55;;;;;;;19.37;76.03;94482.88;4211889;28;20086;-60
2023/06/15 05:59:16;;;;;;;15.73;13.13;;;;;;;19.40;76.11;94485.13;4209285;28;20044;-58
2023/06/15 06:01:34;;;;;;;15.95;13.13;;;;;;;19.48;75.97;94491.16;4196539;28;20498;-60
2023/06/15 06:03:35;;;;;;;14.43;12.95;;;;;;;19.57;76.15;94490.66;4194996;28;20052;-58
2023/06/15 06:05:37;;;;;;;14.73;13.18;;;;;;;19.61;75.50;94489.19;4195562;28;20067;-60
2023/06/15 06:07:39;;;;;;;15.00;13.50;;;;;;;19.53;74.49;94488.66;4207516;28;20052;-57
2023/06/15 06:09:41;;;;;;;14.05;12.50;;;;;;;19.51;74.70;94483.59;4211947;28;20056;-57
2023/06/15 06:11:43;;;;;;;16.00;13.93;;;;;;;19.34;75.08;94485.19;4212482;28;20055;-59
2023/06/15 06:13:44;;;;;;;15.43;13.82;;;;;;;19.10;75.84;94486.78;4212828;28;20094;-57
2023/06/15 06:15:46;;;;;;;19.73;13.48;;;;;;;18.97;76.88;94487.72;4201835;28;20048;-58
2023/06/15 06:17:48;;;;;;;17.33;14.00;;;;;;;19.02;77.42;94479.94;4210463;28;20063;-59
2023/06/15 06:20:09;;;;;;;16.85;13.93;;;;;;;19.11;77.14;94483.13;4195584;28;20457;-54
2023/06/15 06:22:11;;;;;;;14.63;13.10;;;;;;;19.28;77.48;94480.72;4209371;28;20070;-59
2023/06/15 06:24:12;;;;;;;14.90;13.30;;;;;;;19.48;77.10;94485.84;4200189;28;20063;-59
2023/06/15 06:26:14;;;;;;;18.60;12.93;;;;;;;19.68;76.87;94486.47;4212105;28;20502;-56
2023/06/15 06:28:16;;;;;;;15.60;12.65;;;;;;;19.92;76.12;94483.97;4212709;28;20052;-57
2023/06/15 06:30:18;;;;;;;15.77;12.88;;;;;;;20.09;75.26;94489.50;4198422;28;20139;-59
2023/06/15 06:32:20;;;;;;;14.60;12.98;;;;;;;20.20;74.35;94488.78;4211743;28;20093;-58
2023/06/15 06:34:22;;;;;;;13.77;11.98;;;;;;;20.32;74.07;94486.16;4211911;28;20047;-60
2023/06/15 06:36:25;;;;;;;16.45;12.63;;;;;;;20.40;72.98;94494.66;4211587;28;20131;-60
2023/06/15 06:38:27;;;;;;;14.70;12.43;;;;;;;20.51;72.87;94493.06;4210931;28;20083;-59
2023/06/15 06:40:29;;;;;;;14.43;12.38;;;;;;;20.58;72.40;94480.50;4198783;28;20043;-60
2023/06/15 06:42:31;;;;;;;29.52;12.93;;;;;;;20.50;71.46;94490.63;4211493;28;20040;-59
2023/06/15 06:44:33;;;;;;;14.50;12.05;;;;;;;20.51;71.83;94487.75;4212403;28;20048;-58
2023/06/15 06:46:36;;;;;;;17.23;12.10;;;;;;;20.46;71.39;94493.75;4211165;28;20056;-58
2023/06/15 06:48:38;;;;;;;16.00;12.48;;;;;;;20.43;72.20;94488.06;4212323;28;20513;-56
2023/06/15 06:50:39;;;;;;;17.52;12.70;;;;;;;20.47;72.28;94491.88;4211057;28;20166;-56
2023/06/15 06:52:44;;;;;;;20.55;12.77;;;;;;;20.43;71.89;94494.22;4210513;28;20056;-56
2023/06/15 06:54:46;;;;;;;19.48;13.93;;;;;;;20.40;72.20;94491.97;4207727;28;20050;-59
2023/06/15 06:56:47;;;;;;;15.48;13.13;;;;;;;20.35;72.15;94486.53;4210778;28;20052;-59
2023/06/15 06:58:49;;;;;;;15.93;12.77;;;;;;;20.40;72.35;94491.19;4209166;28;20044;-58
2023/06/15 07:00:51;;;;;;;17.95;13.93;;;;;;;20.47;73.10;94489.22;4212191;28;20066;-58
2023/06/15 07:02:53;;;;;;;19.88;14.40;;;;;;;20.30;72.25;94494.34;4210992;28;20066;-59
2023/06/15 07:04:55;;;;;;;17.35;13.93;;;;;;;20.34;72.77;94492.88;4210173;28;20139;-60
2023/06/15 07:06:56;;;;;;;16.52;13.45;;;;;;;20.46;72.81;94495.59;4211969;28;20040;-58
2023/06/15 07:08:58;;;;;;;18.88;14.20;;;;;;;20.21;72.38;94487.72;4211795;28;20497;-58
2023/06/15 07:11:00;;;;;;;17.13;13.73;;;;;;;20.15;73.27;94491.28;4210668;28;20044;-59
2023/06/15 07:13:02;;;;;;;17.77;14.10;;;;;;;20.24;73.55;94489.94;4210244;28;20106;-58
2023/06/15 07:15:04;;;;;;;18.60;14.43;;;;;;;20.40;73.64;94497.31;4211979;28;20131;-55
2023/06/15 07:17:06;;;;;;;17.67;14.68;;;;;;;20.55;73.61;94496.09;4211667;28;20044;-59
2023/06/15 07:19:08;;;;;;;18.33;13.98;;;;;;;20.65;73.54;94493.75;4210680;28;20577;-59
2023/06/15 07:21:09;;;;;;;19.50;14.38;;;;;;;20.63;72.37;94496.63;4210980;28;20039;-59
2023/06/15 07:23:11;;;;;;;18.25;15.00;;;;;;;20.49;72.85;94489.81;4211929;28;20048;-60
2023/06/15 07:25:13;;;;;;;19.92;16.20;;;;;;;20.46;73.65;94491.09;4201278;28;20056;-59
2023/06/15 07:27:15;;;;;;;16.77;14.35;;;;;;;20.45;73.81;94489.44;4197151;28;20056;-60
2023/06/15 07:29:17;;;;;;;18.55;14.30;;;;;;;20.50;73.63;94494.13;4207503;28;20135;-60
2023/06/15 07:31:18;;;;;;;22.55;14.85;;;;;;;20.59;73.49;94490.13;4202714;28;20457;-61
2023/06/15 07:33:20;;;;;;;20.70;13.90;;;;;;;20.70;73.39;94496.53;4209643;28;20050;-61
2023/06/15 07:35:22;;;;;;;27.25;15.65;;;;;;;20.83;72.80;94488.34;4207091;28;20050;-63
2023/06/15 07:37:24;;;;;;;21.02;14.85;;;;;;;20.91;72.28;94492.53;4210673;28;20052;-61
2023/06/15 07:39:26;;;;;;;19.33;15.20;;;;;;;20.86;71.42;94485.25;4211749;28;20535;-62
2023/06/15 07:41:27;;;;;;;18.63;15.77;;;;;;;20.71;71.85;94487.50;4210667;28;20514;-61
2023/06/15 07:43:30;;;;;;;22.30;15.50;;;;;;;20.73;72.38;94496.06;4210825;28;20048;-60
2023/06/15 07:45:32;;;;;;;20.70;16.03;;;;;;;20.79;72.25;94483.69;4211454;28;20430;-61
2023/06/15 07:47:33;;;;;;;21.63;14.90;;;;;;;20.91;72.09;94486.38;4209272;28;20360;-59
2023/06/15 07:49:35;;;;;;;18.90;14.63;;;;;;;20.96;71.87;94490.00;4210121;28;20051;-63
2023/06/15 07:51:46;;;;;;;18.55;15.88;;;;;;;21.05;71.90;94482.47;4207171;28;20097;-60
2023/06/15 07:54:05;;;;;;;19.17;14.95;;;;;;;21.13;71.86;94482.16;4206189;28;20056;-60
2023/06/15 07:56:06;;;;;;;18.45;14.80;;;;;;;21.17;71.77;94480.66;4203090;28;20079;-61
2023/06/15 07:58:08;;;;;;;18.27;14.75;;;;;;;21.21;71.80;94481.81;4210436;28;20137;-63
2023/06/15 08:00:10;;;;;;;18.33;14.55;;;;;;;21.22;71.59;94487.94;4209233;28;20044;-62
2023/06/15 08:02:12;;;;;;;25.17;14.65;;;;;;;21.23;71.63;94489.56;4211223;28;20144;-60
2023/06/15 08:04:14;;;;;;;17.50;15.18;;;;;;;21.23;72.14;94485.06;4209774;28;20052;-61
2023/06/15 08:06:16;;;;;;;19.40;16.25;;;;;;;21.24;72.81;94489.34;4211278;28;20082;-60
2023/06/15 08:08:18;;;;;;;19.35;16.02;;;;;;;21.24;73.33;94485.88;4210409;28;20505;-58
2023/06/15 08:10:20;;;;;;;31.25;27.23;;;;;;;21.25;73.77;94482.16;4211351;28;20048;-61
2023/06/15 08:12:22;;;;;;;38.88;32.08;;;;;;;21.24;73.46;94483.19;4210578;28;20047;-61
2023/06/15 08:14:23;;;;;;;26.20;21.00;;;;;;;21.25;73.92;94482.97;4209393;28;20276;-60
2023/06/15 08:16:25;;;;;;;22.02;18.42;;;;;;;21.25;73.47;94488.31;4198216;28;20070;-60
2023/06/15 08:18:27;;;;;;;25.67;19.50;;;;;;;21.26;73.85;94489.91;4203814;28;20045;-59
2023/06/15 08:20:28;;;;;;;28.02;21.55;;;;;;;21.20;72.53;94485.50;4197199;28;20040;-57
2023/06/15 08:22:30;;;;;;;23.35;16.88;;;;;;;21.21;72.91;94495.13;4199092;28;20668;-58
2023/06/15 08:24:32;;;;;;;23.20;16.67;;;;;;;21.19;72.94;94489.22;4212063;28;20055;-60
2023/06/15 08:26:34;;;;;;;20.75;16.38;;;;;;;21.21;72.85;94497.81;4213841;28;20122;-59
2023/06/15 08:28:35;;;;;;;20.95;15.65;;;;;;;21.20;72.59;94490.84;4214930;28;20048;-61
2023/06/15 08:30:54;;;;;;;18.38;15.90;;;;;;;21.23;72.19;94497.53;4214958;28;20489;-59
2023/06/15 08:32:55;;;;;;;20.88;15.45;;;;;;;21.21;71.60;94497.00;4214764;28;20482;-59
2023/06/15 08:34:57;;;;;;;22.83;16.27;;;;;;;21.19;71.75;94494.56;4213129;28;20063;-57
2023/06/15 08:36:59;;;;;;;20.73;15.95;;;;;;;21.20;72.12;94498.03;4212663;28;20131;-57
2023/06/15 08:39:01;;;;;;;20.67;16.55;;;;;;;21.21;72.28;94491.66;4214512;28;20089;-60
2023/06/15 08:41:04;;;;;;;18.98;16.58;;;;;;;21.18;71.33;94497.44;4213295;28;20052;-58
2023/06/15 08:43:07;;;;;;;20.10;17.90;;;;;;;21.17;71.44;94501.16;4213640;28;20072;-59
2023/06/15 08:45:09;;;;;;;18.90;16.33;;;;;;;21.12;71.54;94499.16;4213110;28;20079;-60
2023/06/15 08:47:11;;;;;;;19.77;16.10;;;;;;;21.08;71.46;94495.34;4212148;28;20123;-59
2023/06/15 08:49:13;;;;;;;18.63;15.70;;;;;;;21.00;71.34;94501.81;4212040;28;20047;-60
2023/06/15 08:51:15;;;;;;;18.55;15.35;;;;;;;20.99;71.93;94500.19;4212285;28;20056;-58
2023/06/15 08:53:18;;;;;;;28.27;22.40;;;;;;;20.96;71.87;94505.16;4211940;28;20051;-56
2023/06/15 08:55:22;;;;;;;18.88;16.80;;;;;;;20.97;72.35;94507.59;4200919;28;20133;-55
2023/06/15 08:57:23;;;;;;;18.95;16.50;;;;;;;20.95;72.91;94516.84;4202434;28;20067;-60
2023/06/15 08:59:25;;;;;;;20.75;18.25;;;;;;;20.93;73.07;94510.94;4213790;28;20510;-58
2023/06/15 09:01:27;;;;;;;27.00;19.67;;;;;;;20.86;73.84;94519.84;4213516;28;20382;-60
2023/06/15 09:03:31;;;;;;;26.63;19.58;;;;;;;20.73;74.78;94520.00;4202601;28;20048;-57
2023/06/15 09:05:33;;;;;;;22.55;19.92;;;;;;;20.67;75.28;94515.59;4210477;28;20051;-59
2023/06/15 09:07:35;;;;;;;25.35;19.92;;;;;;;20.60;75.80;94518.34;4207360;28;20417;-57
2023/06/15 09:09:37;;;;;;;22.67;20.13;;;;;;;20.52;76.23;94528.47;4203939;28;20128;-57
2023/06/15 09:11:40;;;;;;;25.33;20.13;;;;;;;20.38;76.95;94523.31;4203379;28;20074;-58
2023/06/15 09:13:43;;;;;;;22.48;19.98;;;;;;;20.32;77.41;94520.75;4204459;28;20044;-59
2023/06/15 09:15:50;;;;;;;25.52;21.55;;;;;;;20.28;77.66;94520.38;4207035;28;20056;-60
2023/06/15 09:17:52;;;;;;;26.55;21.95;;;;;;;20.29;78.50;94530.00;4203165;28;20048;-60
2023/06/15 09:19:55;;;;;;;27.52;20.98;;;;;;;20.30;79.02;94525.47;4212920;28;20444;-60
2023/06/15 09:21:58;;;;;;;30.75;21.65;;;;;;;20.30;79.04;94523.63;4208486;28;20136;-60
2023/06/15 09:24:03;;;;;;;30.23;23.30;;;;;;;20.28;79.26;94519.56;4208308;28;20063;-62
2023/06/15 09:26:06;;;;;;;24.73;21.58;;;;;;;20.28;79.24;94528.34;4211880;28;20143;-60